Time;durP1;ratioP1;P1;durP2;ratioP2;P2;SDS_P1;SDS_P2;PMS_P1;PMS_P2;Temp;Humidity;BMP_temperature;BMP_pressure;BME280_temperature;BME280_humidity;BME280_pressure;Samples;Min_cycle;Max_cycle;Signal;HPM_P1;HPM_P2
2021/06/30 00:00:53;;;;;;;1.42;0.70;;;15.10;98.20;;;;;;5033520;28;20137;-68
2021/06/30 00:03:19;;;;;;;2.33;0.80;;;15.00;98.20;;;;;;5032051;28;20491;-68
2021/06/30 00:05:44;;;;;;;2.53;0.80;;;15.00;98.30;;;;;;5033525;28;20029;-68
2021/06/30 00:08:10;;;;;;;2.55;0.90;;;15.00;98.30;;;;;;5033455;28;20021;-68
2021/06/30 00:10:37;;;;;;;1.55;0.75;;;15.00;98.30;;;;;;5033719;28;20057;-68
2021/06/30 00:13:03;;;;;;;2.78;0.63;;;14.90;98.40;;;;;;5033003;28;20515;-68
2021/06/30 00:15:31;;;;;;;1.40;0.75;;;14.90;98.50;;;;;;5032890;28;20048;-68
2021/06/30 00:17:57;;;;;;;1.25;0.60;;;14.90;98.50;;;;;;5033439;28;20029;-68
2021/06/30 00:20:23;;;;;;;2.92;0.75;;;14.90;98.50;;;;;;5033726;28;20099;-68
2021/06/30 00:22:48;;;;;;;3.17;0.95;;;14.90;98.50;;;;;;5033267;28;20097;-68
2021/06/30 00:25:15;;;;;;;2.45;0.90;;;14.90;98.50;;;;;;5033192;28;20018;-68
2021/06/30 00:27:43;;;;;;;1.40;0.70;;;14.80;98.50;;;;;;5032953;28;20013;-68
2021/06/30 00:30:10;;;;;;;1.15;0.60;;;14.80;98.60;;;;;;5033194;28;20021;-68
2021/06/30 00:32:35;;;;;;;2.75;0.77;;;14.80;98.60;;;;;;5033132;28;20117;-68
2021/06/30 00:35:01;;;;;;;3.45;0.73;;;14.80;98.60;;;;;;5031940;28;20112;-68
2021/06/30 00:37:27;;;;;;;1.27;0.57;;;14.80;98.60;;;;;;5033286;28;20026;-68
2021/06/30 00:39:53;;;;;;;1.40;0.70;;;14.80;98.70;;;;;;5033030;28;20117;-68
2021/06/30 00:42:18;;;;;;;3.08;1.20;;;14.80;98.70;;;;;;5032925;28;20112;-68
2021/06/30 00:44:44;;;;;;;1.33;0.60;;;14.80;98.70;;;;;;5033128;28;20109;-68
2021/06/30 00:47:10;;;;;;;1.30;0.70;;;14.80;98.70;;;;;;5033284;28;20034;-67
2021/06/30 00:49:36;;;;;;;1.65;0.70;;;14.90;98.70;;;;;;5032996;28;20037;-68
2021/06/30 00:52:02;;;;;;;3.70;0.80;;;14.90;98.70;;;;;;5031803;28;20025;-68
2021/06/30 00:54:27;;;;;;;2.13;0.90;;;14.90;98.70;;;;;;5032881;28;20041;-68
2021/06/30 00:56:54;;;;;;;1.85;0.88;;;14.90;98.60;;;;;;5032772;28;20042;-68
2021/06/30 00:59:20;;;;;;;3.65;0.90;;;14.90;98.70;;;;;;5032904;28;20112;-68
2021/06/30 01:01:46;;;;;;;1.55;0.80;;;14.90;98.60;;;;;;5032735;28;20052;-67
2021/06/30 01:04:11;;;;;;;3.45;1.52;;;14.90;98.60;;;;;;5036465;28;20025;-68
2021/06/30 01:06:37;;;;;;;2.97;1.17;;;14.90;98.60;;;;;;5036592;28;20029;-68
2021/06/30 01:09:06;;;;;;;2.63;1.00;;;14.80;98.60;;;;;;5036673;28;20038;-68
2021/06/30 01:11:33;;;;;;;2.05;1.30;;;14.90;98.70;;;;;;5036282;28;20025;-68
2021/06/30 01:13:59;;;;;;;1.60;1.08;;;14.90;98.70;;;;;;5025256;28;20142;-68
2021/06/30 01:16:24;;;;;;;1.58;0.70;;;14.90;98.70;;;;;;5016990;28;20049;-68
2021/06/30 01:18:50;;;;;;;1.52;0.80;;;14.90;98.60;;;;;;5016628;28;20045;-68
2021/06/30 01:21:15;;;;;;;2.03;0.90;;;14.90;98.60;;;;;;5016701;28;20021;-67
2021/06/30 01:23:42;;;;;;;2.35;1.02;;;14.90;98.60;;;;;;5016697;28;20391;-68
2021/06/30 01:26:08;;;;;;;2.00;0.98;;;14.90;98.60;;;;;;5016348;28;20122;-68
2021/06/30 01:28:35;;;;;;;2.90;0.85;;;14.90;98.60;;;;;;5016824;28;20022;-67
2021/06/30 01:31:01;;;;;;;1.88;1.20;;;14.90;98.60;;;;;;5016483;28;20030;-68
2021/06/30 01:33:27;;;;;;;1.98;1.10;;;14.90;98.60;;;;;;5016606;28;20018;-68
2021/06/30 01:35:53;;;;;;;2.13;1.02;;;14.80;98.60;;;;;;5018621;28;20034;-68
2021/06/30 01:38:26;;;;;;;2.55;1.30;;;14.90;98.70;;;;;;5036003;28;20041;-68
2021/06/30 01:40:54;;;;;;;3.03;1.25;;;14.80;98.70;;;;;;5035892;28;20498;-68
2021/06/30 01:43:20;;;;;;;2.75;1.20;;;14.80;98.70;;;;;;5036057;28;20059;-68
2021/06/30 01:45:48;;;;;;;3.00;1.50;;;14.80;98.70;;;;;;5035989;28;20057;-68
2021/06/30 01:48:14;;;;;;;1.80;1.35;;;14.80;98.70;;;;;;5035971;28;20112;-68
2021/06/30 01:50:40;;;;;;;3.25;1.38;;;14.80;98.70;;;;;;5035797;28;20104;-68
2021/06/30 01:53:05;;;;;;;3.70;1.30;;;14.80;98.70;;;;;;5035952;28;20099;-68
2021/06/30 01:55:32;;;;;;;2.90;1.77;;;14.80;98.80;;;;;;5035516;28;20122;-68
2021/06/30 01:58:01;;;;;;;3.60;1.80;;;14.90;98.80;;;;;;5035698;28;20096;-69
2021/06/30 02:00:27;;;;;;;5.43;1.88;;;14.80;98.80;;;;;;5035668;28;20021;-68
2021/06/30 02:02:52;;;;;;;3.38;1.38;;;14.80;98.80;;;;;;5035601;28;20026;-68
2021/06/30 02:05:20;;;;;;;2.92;1.45;;;14.80;98.80;;;;;;5035762;28;20108;-68
2021/06/30 02:07:49;;;;;;;3.70;1.70;;;14.90;99.10;;;;;;5035409;28;20526;-68
2021/06/30 02:10:15;;;;;;;3.67;1.70;;;14.80;98.80;;;;;;5035315;28;20453;-68
2021/06/30 02:12:43;;;;;;;2.58;1.17;;;14.80;98.80;;;;;;5034975;28;20022;-68
2021/06/30 02:15:15;;;;;;;4.30;1.15;;;14.80;98.80;;;;;;5033808;28;20399;-68
2021/06/30 02:17:42;;;;;;;3.92;1.10;;;14.80;98.80;;;;;;5035528;28;20014;-67
2021/06/30 02:20:10;;;;;;;2.05;1.00;;;14.80;98.90;;;;;;5034114;28;20060;-67
2021/06/30 02:22:39;;;;;;;1.73;0.93;;;14.80;98.80;;;;;;5033729;28;20028;-67
2021/06/30 02:25:11;;;;;;;2.63;1.13;;;14.80;98.80;;;;;;5034086;28;20053;-68
2021/06/30 02:27:37;;;;;;;2.70;1.25;;;14.70;98.70;;;;;;5035273;28;20068;-68
2021/06/30 02:30:19;;;;;;;2.53;1.80;;;14.70;98.80;;;;;;5035235;28;20032;-68
2021/06/30 02:32:45;;;;;;;3.20;1.40;;;14.70;98.80;;;;;;5035765;28;20021;-68
2021/06/30 02:35:14;;;;;;;3.17;1.45;;;14.60;98.90;;;;;;5035428;28;20455;-68
2021/06/30 02:37:40;;;;;;;4.72;2.17;;;14.60;99.00;;;;;;5034817;28;20021;-68
2021/06/30 02:40:08;;;;;;;2.83;1.60;;;14.60;99.00;;;;;;5033741;28;20175;-69
2021/06/30 02:42:35;;;;;;;3.13;1.92;;;14.60;99.00;;;;;;5033623;28;20479;-68
2021/06/30 02:45:01;;;;;;;5.60;2.15;;;14.60;99.10;;;;;;5034862;28;20029;-68
2021/06/30 02:47:26;;;;;;;3.28;2.00;;;14.60;99.10;;;;;;5033827;28;20028;-69
2021/06/30 02:49:52;;;;;;;4.22;1.80;;;14.50;99.10;;;;;;5033299;28;20040;-68
2021/06/30 02:52:17;;;;;;;3.90;1.95;;;14.60;99.10;;;;;;5033452;28;20383;-68
2021/06/30 02:54:43;;;;;;;3.45;2.30;;;14.60;99.20;;;;;;5034675;28;20106;-68
2021/06/30 02:57:09;;;;;;;4.47;2.50;;;14.60;99.50;;;;;;5035087;28;20025;-68
2021/06/30 02:59:34;;;;;;;4.63;2.42;;;14.60;99.20;;;;;;5034663;28;20025;-68
2021/06/30 03:02:00;;;;;;;4.53;1.98;;;14.60;99.30;;;;;;5034527;28;20075;-68
2021/06/30 03:04:25;;;;;;;4.85;2.35;;;14.60;99.20;;;;;;5033099;28;20383;-68
2021/06/30 03:06:51;;;;;;;3.45;2.08;;;14.60;99.20;;;;;;5034393;28;20048;-68
2021/06/30 03:09:19;;;;;;;4.60;2.47;;;14.60;99.20;;;;;;5033576;28;20025;-68
2021/06/30 03:11:45;;;;;;;3.00;2.30;;;14.60;99.20;;;;;;5034197;28;20022;-68
2021/06/30 03:14:10;;;;;;;6.05;2.35;;;14.60;99.30;;;;;;5033950;28;20052;-68
2021/06/30 03:16:36;;;;;;;3.97;2.30;;;14.60;99.20;;;;;;5034322;28;20396;-68
2021/06/30 03:19:01;;;;;;;4.10;2.45;;;14.60;99.30;;;;;;5033938;28;20071;-68
2021/06/30 03:21:28;;;;;;;4.78;2.22;;;14.60;99.20;;;;;;5032975;28;20057;-68
2021/06/30 03:23:54;;;;;;;3.28;2.70;;;14.60;99.30;;;;;;5034177;28;20017;-68
2021/06/30 03:26:19;;;;;;;4.40;2.53;;;14.60;99.30;;;;;;5033304;28;20049;-68
2021/06/30 03:28:45;;;;;;;4.63;3.03;;;14.60;99.20;;;;;;5033983;28;20068;-68
2021/06/30 03:31:11;;;;;;;3.75;2.90;;;14.60;99.20;;;;;;5034236;28;20021;-68
2021/06/30 03:33:36;;;;;;;4.00;2.47;;;14.60;99.30;;;;;;5032798;28;20025;-68
2021/06/30 03:36:04;;;;;;;3.42;2.75;;;14.60;99.20;;;;;;5033918;28;20048;-67
2021/06/30 03:38:30;;;;;;;3.53;2.67;;;14.60;99.30;;;;;;5033749;28;20471;-68
2021/06/30 03:40:56;;;;;;;5.03;2.95;;;14.60;99.30;;;;;;5033855;28;20025;-67
2021/06/30 03:43:21;;;;;;;4.50;2.88;;;14.60;99.30;;;;;;5032348;28;20074;-68
2021/06/30 03:45:47;;;;;;;3.75;2.85;;;14.60;99.30;;;;;;5033787;28;20029;-68
2021/06/30 03:48:12;;;;;;;3.63;2.53;;;14.60;99.30;;;;;;5033626;28;20029;-68
2021/06/30 03:50:38;;;;;;;3.63;2.55;;;14.60;99.30;;;;;;5033635;28;20029;-68
2021/06/30 03:53:03;;;;;;;4.47;2.63;;;14.60;99.30;;;;;;5033803;28;20037;-68
2021/06/30 03:55:29;;;;;;;3.03;2.70;;;14.60;99.40;;;;;;5032286;28;20037;-68
2021/06/30 03:57:54;;;;;;;5.18;2.83;;;14.60;99.30;;;;;;5033531;28;20079;-68
2021/06/30 04:00:20;;;;;;;6.05;3.50;;;14.60;99.30;;;;;;5033807;28;20440;-68
2021/06/30 04:02:45;;;;;;;3.63;2.78;;;14.60;99.40;;;;;;5032145;28;20022;-68
2021/06/30 04:05:11;;;;;;;3.55;2.80;;;14.60;99.40;;;;;;5032126;28;20029;-68
2021/06/30 04:07:37;;;;;;;4.70;3.65;;;14.60;99.40;;;;;;5033588;28;20021;-68
2021/06/30 04:10:06;;;;;;;5.47;3.08;;;14.60;99.40;;;;;;5020551;28;20026;-68
2021/06/30 04:12:32;;;;;;;5.15;3.22;;;14.60;99.70;;;;;;5013666;28;20065;-68
2021/06/30 04:14:57;;;;;;;6.07;3.45;;;14.60;99.40;;;;;;5024419;28;20455;-68
2021/06/30 04:17:23;;;;;;;3.65;2.92;;;14.60;99.50;;;;;;5033416;28;20034;-68
2021/06/30 04:19:48;;;;;;;3.58;2.72;;;14.70;99.50;;;;;;5026787;28;20040;-68
2021/06/30 04:22:14;;;;;;;3.97;3.05;;;14.70;99.50;;;;;;5033335;28;20105;-68
2021/06/30 04:24:39;;;;;;;4.55;3.38;;;14.70;99.40;;;;;;5033304;28;20096;-68
2021/06/30 04:27:05;;;;;;;4.18;2.92;;;14.80;99.50;;;;;;5033189;28;20104;-68
2021/06/30 04:29:30;;;;;;;3.55;2.92;;;14.70;99.50;;;;;;5033073;28;20033;-68
2021/06/30 04:31:58;;;;;;;3.30;3.00;;;14.80;99.40;;;;;;5033268;28;20063;-68
2021/06/30 04:34:24;;;;;;;7.35;3.08;;;14.80;99.50;;;;;;5032943;28;20126;-68
2021/06/30 04:36:52;;;;;;;4.70;2.95;;;14.80;99.50;;;;;;5034703;28;20519;-68
2021/06/30 04:39:19;;;;;;;3.35;2.35;;;14.80;99.40;;;;;;5037281;28;20022;-68
2021/06/30 04:41:46;;;;;;;6.95;3.15;;;14.80;99.40;;;;;;5037132;28;20025;-68
2021/06/30 04:44:12;;;;;;;5.88;3.35;;;14.80;99.40;;;;;;5036736;28;20026;-68
2021/06/30 04:46:38;;;;;;;5.13;3.05;;;14.80;99.40;;;;;;5037165;28;20360;-68
2021/06/30 04:49:03;;;;;;;3.22;2.60;;;14.80;99.40;;;;;;5035565;28;20083;-68
2021/06/30 04:51:29;;;;;;;3.00;2.40;;;14.80;99.40;;;;;;5036901;28;20075;-68
2021/06/30 04:53:54;;;;;;;6.22;2.30;;;14.80;99.40;;;;;;5037206;28;20060;-68
2021/06/30 04:56:26;;;;;;;2.53;1.65;;;14.70;99.40;;;;;;5036887;28;20480;-68
2021/06/30 04:58:53;;;;;;;2.90;1.70;;;14.70;99.40;;;;;;5037385;28;20108;-68
2021/06/30 05:01:19;;;;;;;3.25;1.70;;;14.70;99.40;;;;;;5036657;28;20087;-68
2021/06/30 05:03:44;;;;;;;4.22;1.75;;;14.70;99.40;;;;;;5036744;28;20633;-68
2021/06/30 05:06:10;;;;;;;3.28;1.45;;;14.70;99.50;;;;;;5036604;28;20021;-68
2021/06/30 05:08:35;;;;;;;2.28;1.40;;;14.70;99.50;;;;;;5036853;28;20025;-68
2021/06/30 05:11:01;;;;;;;2.20;1.00;;;14.70;99.50;;;;;;5036721;28;20033;-68
2021/06/30 05:13:27;;;;;;;2.70;1.00;;;14.70;99.50;;;;;;5036398;28;20504;-69
2021/06/30 05:15:52;;;;;;;2.85;1.08;;;14.70;99.50;;;;;;5035304;28;20044;-69
2021/06/30 05:18:18;;;;;;;1.55;0.80;;;14.70;99.60;;;;;;5036274;28;20025;-68
2021/06/30 05:20:43;;;;;;;1.30;0.90;;;14.70;99.60;;;;;;5036859;28;20044;-69
2021/06/30 05:23:09;;;;;;;2.47;1.02;;;14.70;99.60;;;;;;5036420;28;20112;-69
2021/06/30 05:25:34;;;;;;;1.63;0.93;;;14.70;99.60;;;;;;5036417;28;20026;-69
2021/06/30 05:28:00;;;;;;;2.22;1.20;;;14.80;99.70;;;;;;5036260;28;20025;-68
2021/06/30 05:30:26;;;;;;;2.28;1.02;;;14.80;99.70;;;;;;5036316;28;20029;-69
2021/06/30 05:32:51;;;;;;;2.13;1.10;;;14.80;99.60;;;;;;5036080;28;20029;-68
2021/06/30 05:35:17;;;;;;;3.75;1.33;;;14.80;99.60;;;;;;5036228;28;20025;-69
2021/06/30 05:37:42;;;;;;;3.67;1.63;;;14.80;99.70;;;;;;5036050;28;20052;-69
2021/06/30 05:40:08;;;;;;;2.85;1.58;;;14.80;99.70;;;;;;5035990;28;20033;-69
2021/06/30 05:42:34;;;;;;;6.55;2.50;;;14.80;99.70;;;;;;5036139;28;20419;-69
2021/06/30 05:44:59;;;;;;;4.22;2.20;;;14.80;99.70;;;;;;5036061;28;20021;-68
2021/06/30 05:47:25;;;;;;;4.43;2.13;;;14.80;99.60;;;;;;5035704;28;20040;-69
2021/06/30 05:49:50;;;;;;;3.05;1.67;;;14.80;99.70;;;;;;5035429;28;20387;-69
2021/06/30 05:52:16;;;;;;;3.13;1.88;;;14.80;99.70;;;;;;5035886;28;20041;-69
2021/06/30 05:54:42;;;;;;;3.70;2.08;;;14.90;99.70;;;;;;5035862;28;20433;-69
2021/06/30 05:57:07;;;;;;;4.78;2.08;;;14.90;99.70;;;;;;5035884;28;20112;-69
2021/06/30 05:59:33;;;;;;;4.53;2.03;;;14.90;99.60;;;;;;5034371;28;20030;-69
2021/06/30 06:01:58;;;;;;;3.45;2.28;;;14.90;99.70;;;;;;5035477;28;20034;-69
2021/06/30 06:04:24;;;;;;;3.97;2.42;;;14.90;99.70;;;;;;5035599;28;20025;-69
2021/06/30 06:06:49;;;;;;;4.25;2.47;;;14.90;99.60;;;;;;5026156;28;20022;-68
2021/06/30 06:09:15;;;;;;;3.30;2.13;;;14.90;99.60;;;;;;5015795;28;20040;-69
2021/06/30 06:11:40;;;;;;;3.85;2.75;;;15.00;99.60;;;;;;5015703;28;20396;-69
2021/06/30 06:14:06;;;;;;;3.42;2.83;;;14.90;99.50;;;;;;5029619;28;20100;-69
2021/06/30 06:16:32;;;;;;;2.95;2.10;;;15.00;99.60;;;;;;5035443;28;20033;-68
2021/06/30 06:18:57;;;;;;;5.03;2.95;;;15.00;99.70;;;;;;5035122;28;20025;-68
2021/06/30 06:21:23;;;;;;;3.80;2.63;;;14.90;99.60;;;;;;5035430;28;20033;-68
2021/06/30 06:23:49;;;;;;;5.50;3.10;;;15.00;99.60;;;;;;5035283;28;20029;-68
2021/06/30 06:26:16;;;;;;;3.60;2.53;;;15.00;99.60;;;;;;5035320;28;20431;-68
2021/06/30 06:28:42;;;;;;;3.88;2.97;;;15.00;99.60;;;;;;5035181;28;20519;-68
2021/06/30 06:31:13;;;;;;;4.70;3.38;;;15.10;99.50;;;;;;5035258;28;20112;-68
2021/06/30 06:33:38;;;;;;;3.60;3.15;;;15.00;99.40;;;;;;5035095;28;20129;-68
2021/06/30 06:36:05;;;;;;;4.07;3.03;;;14.90;99.30;;;;;;5035077;28;20515;-68
2021/06/30 06:38:31;;;;;;;4.10;3.58;;;14.90;99.40;;;;;;5034830;28;20021;-68
2021/06/30 06:40:57;;;;;;;3.83;3.20;;;14.80;99.40;;;;;;5035230;28;20037;-68
2021/06/30 06:43:22;;;;;;;5.80;3.10;;;14.80;99.40;;;;;;5034953;28;20056;-68
2021/06/30 06:45:48;;;;;;;4.47;3.38;;;14.70;99.50;;;;;;5035147;28;20024;-68
2021/06/30 06:48:14;;;;;;;4.47;2.80;;;14.70;99.40;;;;;;5035203;28;20460;-68
2021/06/30 06:50:39;;;;;;;4.13;2.63;;;14.80;99.60;;;;;;5034739;28;20053;-68
2021/06/30 06:53:05;;;;;;;5.93;2.88;;;14.80;99.60;;;;;;5034730;28;20037;-68
2021/06/30 06:55:32;;;;;;;4.82;2.75;;;14.80;99.60;;;;;;5034603;28;20041;-68
2021/06/30 06:57:58;;;;;;;4.53;2.65;;;14.80;99.60;;;;;;5034628;28;20029;-68
2021/06/30 07:00:24;;;;;;;4.50;3.30;;;14.90;99.60;;;;;;5034571;28;20041;-68
2021/06/30 07:02:50;;;;;;;5.00;2.90;;;15.00;99.60;;;;;;5034352;28;20057;-68
2021/06/30 07:05:16;;;;;;;3.67;3.15;;;15.00;99.50;;;;;;5034261;28;20108;-68
2021/06/30 07:07:42;;;;;;;7.55;4.10;;;15.00;99.40;;;;;;5034299;28;20499;-68
2021/06/30 07:10:09;;;;;;;4.30;3.53;;;15.00;99.40;;;;;;5034359;28;20025;-68
2021/06/30 07:12:34;;;;;;;4.63;3.35;;;15.10;99.40;;;;;;5034270;28;20026;-68
2021/06/30 07:15:03;;;;;;;4.05;3.08;;;15.00;99.40;;;;;;5034134;28;20064;-68
2021/06/30 07:17:29;;;;;;;3.72;3.03;;;15.00;99.30;;;;;;5034122;28;20032;-69
2021/06/30 07:19:54;;;;;;;4.30;3.78;;;15.10;99.40;;;;;;5034153;28;20034;-68
2021/06/30 07:22:20;;;;;;;3.85;3.08;;;15.10;99.40;;;;;;5034212;28;20026;-68
2021/06/30 07:24:45;;;;;;;3.72;2.85;;;15.10;99.60;;;;;;5034202;28;20029;-68
2021/06/30 07:27:12;;;;;;;4.65;3.15;;;15.30;99.40;;;;;;5034049;28;20056;-68
2021/06/30 07:29:37;;;;;;;3.95;3.30;;;15.30;99.30;;;;;;5034097;28;20036;-68
2021/06/30 07:32:03;;;;;;;3.70;3.00;;;15.40;99.20;;;;;;5032612;28;20025;-68
2021/06/30 07:34:29;;;;;;;4.45;3.17;;;15.40;99.20;;;;;;5033812;28;20030;-68
2021/06/30 07:36:54;;;;;;;3.88;3.28;;;15.50;99.10;;;;;;5033899;28;20499;-68
2021/06/30 07:39:20;;;;;;;3.38;2.83;;;15.60;99.10;;;;;;5033903;28;20459;-68
2021/06/30 07:41:46;;;;;;;3.47;2.92;;;15.60;99.00;;;;;;5033854;28;20024;-68
2021/06/30 07:44:11;;;;;;;3.40;2.83;;;15.70;99.00;;;;;;5033842;28;20044;-68
2021/06/30 07:46:37;;;;;;;3.33;2.80;;;15.80;98.90;;;;;;5032616;28;20021;-68
2021/06/30 07:49:03;;;;;;;3.50;3.20;;;15.90;98.80;;;;;;5033773;28;20064;-68
2021/06/30 07:51:28;;;;;;;3.53;2.92;;;15.90;98.60;;;;;;5033683;28;20041;-68
2021/06/30 07:53:54;;;;;;;3.55;2.53;;;15.90;98.60;;;;;;5033656;28;20037;-68
2021/06/30 07:56:33;;;;;;;3.00;2.42;;;15.90;98.60;;;;;;5032245;28;20472;-68
2021/06/30 07:59:17;;;;;;;2.75;2.30;;;15.90;98.40;;;;;;5033652;28;20474;-68
2021/06/30 08:01:42;;;;;;;3.65;2.20;;;15.90;98.50;;;;;;5032272;28;20160;-68
2021/06/30 08:04:08;;;;;;;2.80;2.08;;;16.00;98.50;;;;;;5033342;28;20240;-68
2021/06/30 08:06:36;;;;;;;3.00;2.47;;;16.00;98.50;;;;;;5033431;28;20424;-68
2021/06/30 08:09:02;;;;;;;3.55;1.88;;;16.10;98.40;;;;;;5033199;28;20033;-68
2021/06/30 08:11:28;;;;;;;2.67;1.80;;;16.10;98.30;;;;;;5033453;28;20034;-68
2021/06/30 08:13:54;;;;;;;3.58;2.20;;;16.10;98.30;;;;;;5033022;28;20056;-67
2021/06/30 08:16:21;;;;;;;3.33;1.77;;;16.10;98.20;;;;;;5033362;28;20052;-68
2021/06/30 08:18:47;;;;;;;2.72;1.48;;;16.10;98.10;;;;;;5033283;28;20084;-68
2021/06/30 08:21:14;;;;;;;3.45;1.65;;;16.00;98.10;;;;;;5033310;28;20468;-68
2021/06/30 08:23:40;;;;;;;3.17;1.85;;;16.00;98.20;;;;;;5033374;28;20026;-68
2021/06/30 08:26:09;;;;;;;3.83;1.92;;;16.10;98.10;;;;;;5033124;28;20017;-68
2021/06/30 08:28:36;;;;;;;3.00;1.88;;;16.00;97.90;;;;;;5032864;28;20030;-68
2021/06/30 08:31:03;;;;;;;2.92;1.77;;;15.90;98.00;;;;;;5033407;28;20022;-68
2021/06/30 08:33:29;;;;;;;2.55;2.25;;;15.90;98.10;;;;;;5033767;28;20032;-68
2021/06/30 08:35:55;;;;;;;4.05;1.90;;;15.80;98.10;;;;;;5033287;28;20460;-68
2021/06/30 08:38:22;;;;;;;3.95;1.48;;;15.80;98.10;;;;;;5032782;28;20053;-68
2021/06/30 08:40:52;;;;;;;3.78;2.42;;;15.70;98.10;;;;;;5032082;28;20045;-67
2021/06/30 08:43:17;;;;;;;2.88;2.33;;;15.70;98.50;;;;;;5033005;28;20064;-68
2021/06/30 08:45:43;;;;;;;4.53;2.45;;;15.70;98.30;;;;;;5033318;28;20022;-68
2021/06/30 08:48:09;;;;;;;2.72;2.22;;;15.80;98.40;;;;;;5033360;28;20041;-68
2021/06/30 08:50:36;;;;;;;3.17;1.80;;;15.80;98.40;;;;;;5032937;28;20030;-68
2021/06/30 08:53:02;;;;;;;3.50;2.25;;;15.80;98.20;;;;;;5031730;28;20083;-68
2021/06/30 08:55:28;;;;;;;2.25;1.70;;;15.90;98.20;;;;;;5032941;28;20031;-68
2021/06/30 08:57:53;;;;;;;2.95;2.05;;;15.90;98.30;;;;;;5031487;28;20128;-68
2021/06/30 09:00:20;;;;;;;3.13;2.30;;;16.00;98.30;;;;;;5033142;28;20025;-68
2021/06/30 09:02:47;;;;;;;3.47;2.90;;;16.00;98.20;;;;;;5022801;28;20018;-68
2021/06/30 09:05:36;;;;;;;5.00;3.47;;;16.10;98.10;;;;;;5013269;28;20061;-68
2021/06/30 09:08:01;;;;;;;4.05;3.38;;;16.10;98.00;;;;;;5013217;28;20451;-68
2021/06/30 09:10:34;;;;;;;6.05;4.05;;;16.00;98.20;;;;;;5012943;28;20100;-68
2021/06/30 09:13:00;;;;;;;5.43;3.38;;;16.10;98.20;;;;;;5014205;28;20041;-68
2021/06/30 09:15:44;;;;;;;4.85;3.13;;;16.10;98.10;;;;;;5032856;28;20092;-68
2021/06/30 09:18:18;;;;;;;4.28;3.35;;;16.10;97.90;;;;;;5032781;28;20033;-68
2021/06/30 09:20:45;;;;;;;4.53;3.60;;;16.10;97.90;;;;;;5032558;28;20075;-68
2021/06/30 09:23:11;;;;;;;3.83;3.30;;;16.00;97.90;;;;;;5033184;28;20021;-68
2021/06/30 09:25:40;;;;;;;4.60;4.13;;;16.00;98.00;;;;;;5036567;28;20357;-68
2021/06/30 09:28:18;;;;;;;4.40;4.00;;;15.90;98.00;;;;;;5036403;28;20476;-68
2021/06/30 09:31:05;;;;;;;4.57;4.13;;;15.90;97.90;;;;;;5036338;28;20030;-68
2021/06/30 09:33:54;;;;;;;3.97;3.58;;;15.90;98.00;;;;;;5036751;28;20075;-68
2021/06/30 09:36:20;;;;;;;4.00;3.60;;;15.90;97.90;;;;;;5036192;28;20026;-68
2021/06/30 09:38:47;;;;;;;3.67;3.30;;;15.90;98.00;;;;;;5036020;28;20030;-68
2021/06/30 09:41:28;;;;;;;4.45;3.55;;;15.90;98.00;;;;;;5036224;28;20018;-68
2021/06/30 09:44:17;;;;;;;3.95;3.55;;;15.90;98.00;;;;;;5035938;28;20029;-68
2021/06/30 09:46:44;;;;;;;3.38;3.03;;;15.90;98.00;;;;;;5036289;28;20475;-68
2021/06/30 09:49:14;;;;;;;4.15;3.75;;;15.90;98.00;;;;;;5036201;28;20037;-68
2021/06/30 09:51:41;;;;;;;4.32;3.85;;;15.80;98.10;;;;;;5035886;28;20035;-68
2021/06/30 09:54:08;;;;;;;4.80;4.30;;;15.90;98.20;;;;;;5035987;28;20419;-68
2021/06/30 09:56:34;;;;;;;4.47;4.03;;;15.80;98.00;;;;;;5035743;28;20029;-68
2021/06/30 09:59:15;;;;;;;4.18;3.67;;;15.90;98.10;;;;;;5035989;28;20029;-68
2021/06/30 10:01:43;;;;;;;4.10;3.53;;;15.90;98.10;;;;;;5035476;28;20056;-68
2021/06/30 10:04:11;;;;;;;3.97;3.25;;;15.90;98.20;;;;;;5036089;28;20064;-68
2021/06/30 10:06:37;;;;;;;2.50;2.10;;;15.90;98.10;;;;;;5035347;28;20025;-68
2021/06/30 10:09:06;;;;;;;3.40;1.85;;;15.90;98.10;;;;;;5036064;28;20483;-68
2021/06/30 10:11:34;;;;;;;2.40;2.00;;;15.90;98.00;;;;;;5035673;28;20479;-68
2021/06/30 10:14:01;;;;;;;4.85;3.00;;;15.90;98.10;;;;;;5033811;28;20053;-68
2021/06/30 10:16:27;;;;;;;3.03;2.47;;;16.00;98.00;;;;;;5035391;28;20113;-68
2021/06/30 10:18:58;;;;;;;4.18;2.90;;;16.00;98.00;;;;;;5035579;28;20033;-68
2021/06/30 10:21:27;;;;;;;4.68;4.15;;;16.10;98.00;;;;;;5035262;28;20025;-68
2021/06/30 10:23:53;;;;;;;3.20;2.90;;;16.10;98.00;;;;;;5035752;28;20032;-68
2021/06/30 10:26:20;;;;;;;6.28;3.25;;;16.10;97.90;;;;;;5035203;28;20527;-68
2021/06/30 10:28:49;;;;;;;4.72;2.72;;;16.10;97.90;;;;;;5034977;28;20040;-67
2021/06/30 10:31:15;;;;;;;3.78;3.30;;;16.10;97.70;;;;;;5035418;28;20028;-68
2021/06/30 10:33:41;;;;;;;3.92;3.38;;;16.00;97.70;;;;;;5033857;28;20021;-68
2021/06/30 10:36:10;;;;;;;3.42;3.00;;;16.00;97.90;;;;;;5034673;28;20395;-68
2021/06/30 10:38:55;;;;;;;5.20;3.08;;;16.00;98.00;;;;;;5034934;28;20031;-68
2021/06/30 10:41:53;;;;;;;5.30;4.03;;;16.10;98.20;;;;;;5035125;28;20022;-68
2021/06/30 10:44:26;;;;;;;3.88;3.47;;;16.30;98.00;;;;;;5022703;28;20080;-68
2021/06/30 10:46:54;;;;;;;7.32;4.82;;;16.40;98.00;;;;;;5035618;28;20083;-68
2021/06/30 10:49:27;;;;;;;5.47;3.70;;;16.50;98.20;;;;;;5034732;28;20116;-68
2021/06/30 10:51:55;;;;;;;5.53;4.05;;;16.80;98.00;;;;;;5034824;28;20025;-68
2021/06/30 10:54:33;;;;;;;5.45;4.25;;;16.90;97.70;;;;;;5034716;28;20025;-68
2021/06/30 10:57:19;;;;;;;5.80;4.28;;;17.10;97.60;;;;;;5034482;28;20029;-68
2021/06/30 11:00:03;;;;;;;4.05;3.60;;;17.20;97.40;;;;;;5026140;28;20076;-68
2021/06/30 11:02:33;;;;;;;9.52;5.35;;;17.40;97.30;;;;;;5014756;28;20045;-68
2021/06/30 11:05:14;;;;;;;3.90;3.30;;;17.40;97.00;;;;;;5015023;28;20022;-68
2021/06/30 11:07:44;;;;;;;3.55;2.97;;;17.40;96.90;;;;;;5013389;28;20038;-68
2021/06/30 11:10:16;;;;;;;2.55;2.15;;;17.40;97.20;;;;;;5014672;28;20152;-68
2021/06/30 11:12:58;;;;;;;2.67;2.20;;;17.40;96.90;;;;;;5014553;28;20026;-68
2021/06/30 11:15:36;;;;;;;3.72;1.92;;;17.50;96.60;;;;;;5014334;28;20284;-68
2021/06/30 11:18:08;;;;;;;3.80;3.25;;;17.40;96.60;;;;;;5014416;28;20503;-68
2021/06/30 11:20:44;;;;;;;;;;;17.40;96.50;;;;;;5015173;28;20418;-68
2021/06/30 11:23:24;;;;;;;3.97;2.53;;;17.30;96.50;;;;;;5014900;28;20000;-68
2021/06/30 11:25:51;;;;;;;2.80;2.30;;;17.20;96.40;;;;;;5014442;28;20022;-68
2021/06/30 11:28:30;;;;;;;3.35;2.47;;;17.00;96.50;;;;;;5024554;28;20066;-68
2021/06/30 11:30:57;;;;;;;4.07;3.05;;;17.00;96.50;;;;;;5034018;28;20479;-68
2021/06/30 11:33:23;;;;;;;3.28;2.72;;;17.00;96.70;;;;;;5034069;28;20090;-68
2021/06/30 11:35:48;;;;;;;3.30;3.00;;;17.00;96.70;;;;;;5034093;28;20025;-68
2021/06/30 11:38:18;;;;;;;4.10;2.80;;;17.00;96.50;;;;;;5033841;28;20098;-68
2021/06/30 11:43:48;;;;;;;4.07;2.80;;;16.90;96.60;;;;;;5031868;28;20580;-68
2021/06/30 11:46:14;;;;;;;5.93;2.85;;;16.80;96.60;;;;;;5027569;28;20037;-68
2021/06/30 11:48:40;;;;;;;3.67;2.95;;;16.70;96.70;;;;;;5032526;28;20032;-67
2021/06/30 11:51:11;;;;;;;5.65;3.42;;;16.70;96.80;;;;;;5033522;28;20460;-68
2021/06/30 11:53:38;;;;;;;3.88;3.30;;;16.70;96.90;;;;;;5033684;28;20025;-68
2021/06/30 11:56:06;;;;;;;5.68;4.35;;;16.70;96.90;;;;;;5033599;28;20021;-68
2021/06/30 11:58:42;;;;;;;4.18;3.78;;;16.60;96.90;;;;;;5033340;28;20048;-68
2021/06/30 12:01:21;;;;;;;5.95;3.80;;;16.60;97.10;;;;;;5032326;28;20022;-68
2021/06/30 12:03:48;;;;;;;9.38;4.97;;;16.50;97.00;;;;;;5033290;28;20096;-68
2021/06/30 12:06:27;;;;;;;6.55;5.05;;;16.40;97.10;;;;;;5033491;28;20480;-68
2021/06/30 12:09:27;;;;;;;6.40;4.97;;;16.30;97.20;;;;;;5033483;28;20487;-68
2021/06/30 12:11:57;;;;;;;4.88;4.43;;;16.20;97.30;;;;;;5033493;28;20025;-68
2021/06/30 12:14:30;;;;;;;6.85;4.47;;;16.20;97.40;;;;;;5032688;28;20049;-68
2021/06/30 12:17:00;;;;;;;4.47;3.78;;;16.10;97.50;;;;;;5033549;28;20041;-68
2021/06/30 12:19:45;;;;;;;5.47;4.35;;;16.10;97.70;;;;;;5033523;28;20053;-68
2021/06/30 12:22:22;;;;;;;4.28;3.38;;;16.20;97.80;;;;;;5033397;28;20039;-68
2021/06/30 12:25:23;;;;;;;3.63;2.45;;;16.30;97.90;;;;;;5033069;28;20076;-68
2021/06/30 12:27:56;;;;;;;3.55;2.20;;;16.30;97.70;;;;;;5031999;28;20388;-68
2021/06/30 12:30:35;;;;;;;3.53;3.22;;;16.30;97.70;;;;;;5033286;28;20024;-68
2021/06/30 12:33:07;;;;;;;3.88;2.55;;;16.30;97.70;;;;;;5031875;28;20101;-68
2021/06/30 12:35:35;;;;;;;4.35;2.70;;;16.30;97.70;;;;;;5033418;28;20022;-68
2021/06/30 12:38:04;;;;;;;3.38;3.05;;;16.20;97.70;;;;;;5032983;28;20033;-68
2021/06/30 12:40:32;;;;;;;4.43;3.28;;;16.10;97.70;;;;;;5031849;28;20373;-68
2021/06/30 12:43:04;;;;;;;4.85;3.42;;;16.10;97.90;;;;;;5032969;28;20044;-68
2021/06/30 12:45:44;;;;;;;3.85;3.28;;;16.00;97.90;;;;;;5033414;28;20029;-68
2021/06/30 12:48:12;;;;;;;3.67;2.78;;;16.00;98.00;;;;;;5031697;28;20052;-68
2021/06/30 12:50:45;;;;;;;4.20;3.80;;;15.90;98.00;;;;;;5032985;28;20025;-68
2021/06/30 12:53:22;;;;;;;4.03;3.63;;;15.90;98.10;;;;;;5033011;28;20080;-69
2021/06/30 12:56:05;;;;;;;5.88;4.28;;;15.80;98.20;;;;;;5032962;28;20021;-69